Terminal Aerodrome Forecast
Issued by NWS

Current Version | Previous Version | Text Only | Print | Product List | Glossary On
Versions: 1 2 3 4 5 6 7 8 9 10 11 12 13 14 15 16 17 18 19 20 21 22 23 24 25 26 27 28 29 30 31 32 33 34
000
FTUS41 KBOX 050017 AAA
TAFACK
TAF AMD
KACK 050017Z 0500/0524 03019G24KT 3SM -RA BR VCTS BKN006 OVC015CB
     FM050300 04015G24KT 2SM -RADZ BR OVC003
     FM050900 04013G23KT 2SM -DZ BR OVC008
     FM051200 03016KT 1SM -SHRADZ BR OVC008
     FM051600 04018G25KT 2SM -SHRADZ BR OVC008
     FM052100 03017G30KT 1/2SM SHRADZ FG OVC008=

USA.gov is the U.S. government's official web portal to all federal, state and local government web resources and services.